KNEW/NEW METAR and TAF weather

Enter ICAO airport designator
Station Type Date Time Source
KNEW METAR 2022/06/28 23:53 UTC NOAA

KNEW 282353Z 03012KT 10SM CLR 29/23 A3002 RMK AO2 SLP157 T02890228 10333 20283 55001


Station Type Date Time Source
KNEW Decoded METAR 2022/06/28 23:53 UTC NOAA

NEW ORLEANS LAKEFRONT AIRPORT , LA, United States (KNEW) 30-03N 90-02W 3M
Jun 28, 2022 - 07:53 PM EDT / 2022.06.28 2353 UTC
Wind: from the NNE (030 degrees) at 14 MPH (12 KT):0
Visibility: 10 mile(s):0
Sky conditions: clear
Temperature: 84.0 F (28.9 C)
Dew Point: 73.0 F (22.8 C)
Relative Humidity: 69%
Pressure (altimeter): 30.02 in. Hg (1016 hPa)
Pressure tendency: 0.00 inches (0.1 hPa) lower than three hours ago
ob: KNEW 282353Z 03012KT 10SM CLR 29/23 A3002 RMK AO2 SLP157 T02890228 10333 20283 55001
cycle: 0

Station Type Date Time Source
KNEW TAF 2022/06/28 23:34 UTC NOAA

TAF
AMD KNEW 282232Z 2823/2918 04015G30KT P6SM VCTS SCT030CB BKN090
FM290200 04011KT P6SM BKN100
FM290700 07008KT P6SM VCTS BKN100CB
FM291200 06008KT P6SM BKN100

Example: see airport list